Time;durP1;ratioP1;P1;durP2;ratioP2;P2;SDS_P1;SDS_P2;PMS_P1;PMS_P2;Temp;Humidity;BMP_temperature;BMP_pressure;BME280_temperature;BME280_humidity;BME280_pressure;Samples;Min_cycle;Max_cycle;Signal;HPM_P1;HPM_P2
2024/01/07 00:00:42;;;;;;;3.10;3.00;;;;;;;;;;6245507;23;20373;-69
2024/01/07 00:03:08;;;;;;;4.20;4.10;;;;;;;;;;6245968;23;20744;-69
2024/01/07 00:05:36;;;;;;;4.47;4.30;;;;;;;;;;6246021;23;20466;-70
2024/01/07 00:08:02;;;;;;;4.40;4.20;;;;;;;;;;6246220;23;20469;-69
2024/01/07 00:10:28;;;;;;;4.03;3.73;;;;;;;;;;6246317;23;20385;-69
2024/01/07 00:12:54;;;;;;;4.30;4.10;;;;;;;;;;6246071;23;20374;-69
2024/01/07 00:15:20;;;;;;;4.73;4.53;;;;;;;;;;6246484;23;20406;-69
2024/01/07 00:17:46;;;;;;;3.73;3.63;;;;;;;;;;6246183;23;20375;-70
2024/01/07 00:20:12;;;;;;;3.90;3.80;;;;;;;;;;6246352;23;20697;-70
2024/01/07 00:22:38;;;;;;;3.23;3.10;;;;;;;;;;6219290;23;20394;-69
2024/01/07 00:25:04;;;;;;;8.17;3.93;;;;;;;;;;6245963;23;20935;-69
2024/01/07 00:27:30;;;;;;;4.37;4.10;;;;;;;;;;6246074;23;20370;-70
2024/01/07 00:29:56;;;;;;;3.60;3.50;;;;;;;;;;6246009;23;20453;-69
2024/01/07 00:32:22;;;;;;;4.30;4.10;;;;;;;;;;6219050;23;20390;-69
2024/01/07 00:34:48;;;;;;;3.60;3.40;;;;;;;;;;6245881;23;20382;-69
2024/01/07 00:37:14;;;;;;;4.93;4.63;;;;;;;;;;6245774;23;20548;-70
2024/01/07 00:39:42;;;;;;;5.80;5.50;;;;;;;;;;6246663;23;20420;-69
2024/01/07 00:42:07;;;;;;;4.43;4.23;;;;;;;;;;6218966;23;20734;-69
2024/01/07 00:44:33;;;;;;;4.53;4.33;;;;;;;;;;6246143;23;20520;-69
2024/01/07 00:46:59;;;;;;;4.00;3.90;;;;;;;;;;6245844;23;20870;-69
2024/01/07 00:49:27;;;;;;;5.40;5.10;;;;;;;;;;6219049;23;20721;-69
2024/01/07 00:51:53;;;;;;;5.47;5.27;;;;;;;;;;6245777;23;20383;-69
2024/01/07 00:54:19;;;;;;;5.40;5.13;;;;;;;;;;6245754;23;20436;-70
2024/01/07 00:56:46;;;;;;;5.60;5.30;;;;;;;;;;6246100;23;20374;-68
2024/01/07 00:59:12;;;;;;;5.77;5.33;;;;;;;;;;6246208;23;20386;-69
2024/01/07 01:01:38;;;;;;;5.53;5.23;;;;;;;;;;6245813;23;20394;-69
2024/01/07 01:04:04;;;;;;;5.13;4.83;;;;;;;;;;6246274;23;20894;-69
2024/01/07 01:06:30;;;;;;;4.87;4.50;;;;;;;;;;6246153;23;20516;-70
2024/01/07 01:08:56;;;;;;;4.80;4.60;;;;;;;;;;6246073;23;20710;-69
2024/01/07 01:11:21;;;;;;;3.10;3.00;;;;;;;;;;6246551;23;20753;-69
2024/01/07 01:13:47;;;;;;;3.60;3.47;;;;;;;;;;6247863;23;20833;-69
2024/01/07 01:16:13;;;;;;;4.20;3.90;;;;;;;;;;6247902;23;20366;-69
2024/01/07 01:18:39;;;;;;;4.60;4.30;;;;;;;;;;6248033;23;20469;-69
2024/01/07 01:21:05;;;;;;;4.53;4.33;;;;;;;;;;6247701;23;20683;-69
2024/01/07 01:23:31;;;;;;;3.97;3.60;;;;;;;;;;6248007;23;20437;-69
2024/01/07 01:25:57;;;;;;;3.77;3.57;;;;;;;;;;6247754;23;20849;-69
2024/01/07 01:28:23;;;;;;;4.00;3.80;;;;;;;;;;6247710;23;20374;-69
2024/01/07 01:30:49;;;;;;;3.17;3.07;;;;;;;;;;6248335;23;20660;-69
2024/01/07 01:33:15;;;;;;;4.40;4.10;;;;;;;;;;6248015;23;20704;-69
2024/01/07 01:35:41;;;;;;;3.80;3.60;;;;;;;;;;6248025;23;20389;-69
2024/01/07 01:38:07;;;;;;;4.20;3.90;;;;;;;;;;6247478;23;20809;-70
2024/01/07 01:40:34;;;;;;;4.53;4.23;;;;;;;;;;6247460;23;20386;-69
2024/01/07 01:43:00;;;;;;;4.03;3.83;;;;;;;;;;6247503;23;20453;-69
2024/01/07 01:45:26;;;;;;;3.67;3.57;;;;;;;;;;6248237;23;20388;-69
2024/01/07 01:47:52;;;;;;;2.83;2.73;;;;;;;;;;6247569;23;20778;-69
2024/01/07 01:50:18;;;;;;;3.93;3.70;;;;;;;;;;6247481;23;20382;-70
2024/01/07 01:52:45;;;;;;;3.83;3.73;;;;;;;;;;6247324;23;20424;-69
2024/01/07 01:55:12;;;;;;;4.60;4.30;;;;;;;;;;6247493;23;20382;-69
2024/01/07 01:57:38;;;;;;;3.47;3.37;;;;;;;;;;6247483;23;20374;-69
2024/01/07 02:00:05;;;;;;;3.90;3.70;;;;;;;;;;6247324;23;20527;-69
2024/01/07 02:02:33;;;;;;;3.83;3.63;;;;;;;;;;6247716;23;20402;-69
2024/01/07 02:04:59;;;;;;;3.10;3.10;;;;;;;;;;6247631;23;20583;-69
2024/01/07 02:07:27;;;;;;;3.97;3.87;;;;;;;;;;6247695;23;20370;-69
2024/01/07 02:09:53;;;;;;;3.33;3.23;;;;;;;;;;6247542;23;20382;-70
2024/01/07 02:12:19;;;;;;;3.63;3.53;;;;;;;;;;6248128;23;20381;-69
2024/01/07 02:14:45;;;;;;;3.60;3.50;;;;;;;;;;6247123;23;20840;-69
2024/01/07 02:17:11;;;;;;;4.13;3.93;;;;;;;;;;6247323;23;20385;-69
2024/01/07 02:19:37;;;;;;;4.03;3.90;;;;;;;;;;6247268;23;20753;-69
2024/01/07 02:22:04;;;;;;;2.80;2.70;;;;;;;;;;6247418;23;20406;-70
2024/01/07 02:24:30;;;;;;;3.57;3.47;;;;;;;;;;6246302;23;20425;-69
2024/01/07 02:26:56;;;;;;;3.83;3.73;;;;;;;;;;6247469;23;20440;-69
2024/01/07 02:29:22;;;;;;;2.97;2.90;;;;;;;;;;6247480;23;20402;-70
2024/01/07 02:31:48;;;;;;;3.73;3.50;;;;;;;;;;6247138;23;20382;-69
2024/01/07 02:34:14;;;;;;;3.90;3.70;;;;;;;;;;6247159;23;20428;-69
2024/01/07 02:36:40;;;;;;;2.87;2.87;;;;;;;;;;6247098;23;20450;-69
2024/01/07 02:39:06;;;;;;;3.30;3.20;;;;;;;;;;6220146;23;20442;-70
2024/01/07 02:41:32;;;;;;;3.07;2.97;;;;;;;;;;6247254;23;20508;-69
2024/01/07 02:43:58;;;;;;;3.17;3.07;;;;;;;;;;6246885;23;20482;-69
2024/01/07 02:46:24;;;;;;;2.87;2.77;;;;;;;;;;6247204;23;20374;-69
2024/01/07 02:48:50;;;;;;;3.43;3.23;;;;;;;;;;6247324;23;20386;-70
2024/01/07 02:51:16;;;;;;;2.70;2.60;;;;;;;;;;6246953;23;20855;-69
2024/01/07 02:53:42;;;;;;;2.97;2.87;;;;;;;;;;6247160;23;20382;-70
2024/01/07 02:56:08;;;;;;;2.97;2.87;;;;;;;;;;6246894;23;20840;-70
2024/01/07 02:58:34;;;;;;;2.50;2.40;;;;;;;;;;6247192;23;20509;-69
2024/01/07 03:01:00;;;;;;;2.87;2.80;;;;;;;;;;6247539;23;20405;-69
2024/01/07 03:03:26;;;;;;;2.53;2.43;;;;;;;;;;6247138;23;20425;-69
2024/01/07 03:05:52;;;;;;;3.00;2.97;;;;;;;;;;6246750;23;20382;-70
2024/01/07 03:08:18;;;;;;;2.67;2.67;;;;;;;;;;6219792;23;20390;-69
2024/01/07 03:10:44;;;;;;;2.27;2.23;;;;;;;;;;6247167;23;20428;-70
2024/01/07 03:13:10;;;;;;;4.20;4.00;;;;;;;;;;6247070;23;20382;-70
2024/01/07 03:15:36;;;;;;;3.10;3.00;;;;;;;;;;6246666;23;20384;-69
2024/01/07 03:18:02;;;;;;;3.50;3.50;;;;;;;;;;6246608;23;20383;-70
2024/01/07 03:20:28;;;;;;;3.67;3.47;;;;;;;;;;6246944;23;20428;-69
2024/01/07 03:22:55;;;;;;;2.90;2.90;;;;;;;;;;6246588;23;20832;-69
2024/01/07 03:25:21;;;;;;;4.03;3.83;;;;;;;;;;6246903;23;20378;-69
2024/01/07 03:27:47;;;;;;;3.23;3.13;;;;;;;;;;6247253;23;20393;-69
2024/01/07 03:30:13;;;;;;;3.93;3.67;;;;;;;;;;6246857;23;20389;-69
2024/01/07 03:32:39;;;;;;;3.90;3.77;;;;;;;;;;6246542;23;20382;-69
2024/01/07 03:35:05;;;;;;;4.60;4.27;;;;;;;;;;6247039;23;20427;-69
2024/01/07 03:37:31;;;;;;;4.30;4.10;;;;;;;;;;6246703;23;20461;-69
2024/01/07 03:39:57;;;;;;;4.70;4.43;;;;;;;;;;6246610;23;20359;-69
2024/01/07 03:42:23;;;;;;;3.90;3.70;;;;;;;;;;6246621;23;20389;-69
2024/01/07 03:44:48;;;;;;;4.70;4.60;;;;;;;;;;6246487;23;20516;-69
2024/01/07 03:47:14;;;;;;;3.73;3.63;;;;;;;;;;6246330;23;20424;-69
2024/01/07 03:49:40;;;;;;;4.17;3.97;;;;;;;;;;6246260;23;20378;-69
2024/01/07 03:52:08;;;;;;;4.10;3.90;;;;;;;;;;6246511;23;20379;-69
2024/01/07 03:54:34;;;;;;;4.20;4.10;;;;;;;;;;6246486;23;20386;-69
2024/01/07 03:57:00;;;;;;;4.80;4.60;;;;;;;;;;6246296;23;20406;-69
2024/01/07 03:59:26;;;;;;;4.77;4.57;;;;;;;;;;6246525;23;20382;-69
2024/01/07 04:01:56;;;;;;;4.40;4.30;;;;;;;;;;6246109;23;20396;-69
2024/01/07 04:04:22;;;;;;;4.30;4.00;;;;;;;;;;6246075;23;20422;-69
2024/01/07 04:06:48;;;;;;;4.80;4.50;;;;;;;;;;6246743;23;20859;-69
2024/01/07 04:09:14;;;;;;;4.73;4.53;;;;;;;;;;6246394;23;20398;-69
2024/01/07 04:11:41;;;;;;;3.77;3.57;;;;;;;;;;6246372;23;20856;-69
2024/01/07 04:14:07;;;;;;;4.40;4.20;;;;;;;;;;6219728;23;20846;-69
2024/01/07 04:16:33;;;;;;;4.60;4.40;;;;;;;;;;6246296;23;20406;-70
2024/01/07 04:18:59;;;;;;;4.07;3.87;;;;;;;;;;6246462;23;20378;-69
2024/01/07 04:21:25;;;;;;;4.20;4.00;;;;;;;;;;6246073;23;20431;-69
2024/01/07 04:23:51;;;;;;;4.13;3.97;;;;;;;;;;6245853;23;20433;-69
2024/01/07 04:26:17;;;;;;;3.70;3.60;;;;;;;;;;6246214;23;20844;-69
2024/01/07 04:28:43;;;;;;;3.50;3.40;;;;;;;;;;6246284;23;20378;-69
2024/01/07 04:31:10;;;;;;;3.17;2.97;;;;;;;;;;6245862;23;20378;-69
2024/01/07 04:33:36;;;;;;;3.33;3.23;;;;;;;;;;6246293;23;20502;-69
2024/01/07 04:36:02;;;;;;;3.60;3.50;;;;;;;;;;6245862;23;20376;-69
2024/01/07 04:38:29;;;;;;;3.60;3.30;;;;;;;;;;6245658;23;20437;-69
2024/01/07 04:40:54;;;;;;;2.93;2.83;;;;;;;;;;6246223;23;20458;-69
2024/01/07 04:43:20;;;;;;;3.17;3.07;;;;;;;;;;6245728;23;20454;-69
2024/01/07 04:45:46;;;;;;;2.60;2.53;;;;;;;;;;6245869;23;20389;-69
2024/01/07 04:48:13;;;;;;;3.17;3.17;;;;;;;;;;6246457;23;20465;-69
2024/01/07 04:50:41;;;;;;;2.80;2.70;;;;;;;;;;6246144;23;20385;-68
2024/01/07 04:53:07;;;;;;;2.87;2.77;;;;;;;;;;6246245;23;20428;-69
2024/01/07 04:55:33;;;;;;;2.60;2.50;;;;;;;;;;6246132;23;20379;-69
2024/01/07 04:57:59;;;;;;;2.80;2.80;;;;;;;;;;6245781;23;20378;-69
2024/01/07 05:00:25;;;;;;;3.07;2.97;;;;;;;;;;6245681;23;20859;-69
2024/01/07 05:02:51;;;;;;;3.30;3.20;;;;;;;;;;6246501;23;20469;-69
2024/01/07 05:05:17;;;;;;;3.33;3.33;;;;;;;;;;6246058;23;20390;-69
2024/01/07 05:07:43;;;;;;;3.00;2.90;;;;;;;;;;6245656;23;20424;-69
2024/01/07 05:10:09;;;;;;;3.40;3.30;;;;;;;;;;6245712;23;20382;-70
2024/01/07 05:12:35;;;;;;;3.10;3.00;;;;;;;;;;6246098;23;20374;-69
2024/01/07 05:15:01;;;;;;;3.23;3.13;;;;;;;;;;6245651;23;20374;-70
2024/01/07 05:17:29;;;;;;;3.53;3.43;;;;;;;;;;6245785;23;20457;-69
2024/01/07 05:19:55;;;;;;;3.50;3.40;;;;;;;;;;6218788;23;20401;-70
2024/01/07 05:22:22;;;;;;;2.90;2.80;;;;;;;;;;6245879;23;20382;-69
2024/01/07 05:24:48;;;;;;;2.40;2.40;;;;;;;;;;6245848;23;20437;-70
2024/01/07 05:27:14;;;;;;;2.80;2.70;;;;;;;;;;6245654;23;20721;-69
2024/01/07 05:29:40;;;;;;;3.30;3.20;;;;;;;;;;6245626;23;20411;-69
2024/01/07 05:32:06;;;;;;;2.83;2.73;;;;;;;;;;6245912;23;20375;-70
2024/01/07 05:34:32;;;;;;;2.97;2.67;;;;;;;;;;6245696;23;20374;-70
2024/01/07 05:36:58;;;;;;;2.93;2.83;;;;;;;;;;6245419;23;20401;-69
2024/01/07 05:39:24;;;;;;;2.90;2.80;;;;;;;;;;6245546;23;20436;-70
2024/01/07 05:41:50;;;;;;;2.60;2.60;;;;;;;;;;6245781;23;20374;-70
2024/01/07 05:44:16;;;;;;;3.03;2.93;;;;;;;;;;6245416;23;20429;-69
2024/01/07 05:46:42;;;;;;;5.90;4.00;;;;;;;;;;6246510;23;20408;-70
2024/01/07 05:49:09;;;;;;;2.80;2.77;;;;;;;;;;6245855;23;20374;-70
2024/01/07 05:51:38;;;;;;;3.03;2.80;;;;;;;;;;6245730;23;20378;-69
2024/01/07 05:54:04;;;;;;;3.23;3.13;;;;;;;;;;6246068;23;20374;-69
2024/01/07 05:56:30;;;;;;;2.77;2.77;;;;;;;;;;6245791;23;20925;-69
2024/01/07 05:58:56;;;;;;;3.73;3.50;;;;;;;;;;6247197;23;20887;-69
2024/01/07 06:01:24;;;;;;;2.57;2.57;;;;;;;;;;6247893;23;20366;-69
2024/01/07 06:03:50;;;;;;;2.70;2.60;;;;;;;;;;6247442;23;20429;-70
2024/01/07 06:06:16;;;;;;;2.90;2.80;;;;;;;;;;6247332;23;20926;-70
2024/01/07 06:08:42;;;;;;;3.57;3.37;;;;;;;;;;6247857;23;20366;-69
2024/01/07 06:11:09;;;;;;;2.90;2.80;;;;;;;;;;6248608;23;20439;-69
2024/01/07 06:13:35;;;;;;;3.77;3.57;;;;;;;;;;6247555;23;20378;-69
2024/01/07 06:16:01;;;;;;;3.73;3.53;;;;;;;;;;6220371;23;20719;-70
2024/01/07 06:18:27;;;;;;;3.50;3.40;;;;;;;;;;6247237;23;20386;-70
2024/01/07 06:20:53;;;;;;;4.10;3.80;;;;;;;;;;6247027;23;20387;-70
2024/01/07 06:23:19;;;;;;;3.50;3.40;;;;;;;;;;6246981;23;20434;-69
2024/01/07 06:25:45;;;;;;;4.63;4.37;;;;;;;;;;6247324;23;20409;-70
2024/01/07 06:28:10;;;;;;;3.43;3.30;;;;;;;;;;6247125;23;20374;-70
2024/01/07 06:30:36;;;;;;;5.90;5.40;;;;;;;;;;6247431;23;20366;-70
2024/01/07 06:33:02;;;;;;;5.03;4.70;;;;;;;;;;6247022;23;20378;-70
2024/01/07 06:35:28;;;;;;;3.77;3.47;;;;;;;;;;6246961;23;20424;-70
2024/01/07 06:37:54;;;;;;;3.50;3.30;;;;;;;;;;6246832;23;20441;-70
2024/01/07 06:40:20;;;;;;;2.33;2.23;;;;;;;;;;6246923;23;20401;-70
2024/01/07 06:42:48;;;;;;;3.50;3.20;;;;;;;;;;6246985;23;20473;-70
2024/01/07 06:45:14;;;;;;;3.40;3.20;;;;;;;;;;6246973;23;20386;-69
2024/01/07 06:47:40;;;;;;;2.23;2.23;;;;;;;;;;6247001;23;20363;-70
2024/01/07 06:50:07;;;;;;;2.40;2.40;;;;;;;;;;6247133;23;20832;-70
2024/01/07 06:52:33;;;;;;;1.97;1.97;;;;;;;;;;6246853;23;20394;-70
2024/01/07 06:54:59;;;;;;;2.80;2.80;;;;;;;;;;6246745;23;20860;-70
2024/01/07 06:57:24;;;;;;;2.80;2.70;;;;;;;;;;6246808;23;20465;-70
2024/01/07 06:59:50;;;;;;;2.23;2.23;;;;;;;;;;6246807;23;20404;-70
2024/01/07 07:02:16;;;;;;;3.30;3.10;;;;;;;;;;6246741;23;20461;-69
2024/01/07 07:04:42;;;;;;;2.83;2.70;;;;;;;;;;6247347;23;20453;-69
2024/01/07 07:07:08;;;;;;;3.73;3.53;;;;;;;;;;6248018;23;20370;-69
2024/01/07 07:09:34;;;;;;;3.33;3.23;;;;;;;;;;6246703;23;20477;-69
2024/01/07 07:12:00;;;;;;;4.30;4.10;;;;;;;;;;6247570;23;20412;-70
2024/01/07 07:14:26;;;;;;;5.60;4.10;;;;;;;;;;6247017;23;20370;-69
2024/01/07 07:16:52;;;;;;;3.17;3.07;;;;;;;;;;6246719;23;20389;-70
2024/01/07 07:19:18;;;;;;;5.33;4.27;;;;;;;;;;6246671;23;20868;-70
2024/01/07 07:21:44;;;;;;;3.87;3.67;;;;;;;;;;6246640;23;20374;-69
2024/01/07 07:24:10;;;;;;;4.10;3.70;;;;;;;;;;6247146;23;20461;-70
2024/01/07 07:26:40;;;;;;;3.90;3.60;;;;;;;;;;6220122;23;20461;-70
2024/01/07 07:29:06;;;;;;;3.60;3.20;;;;;;;;;;6246900;23;20374;-70
2024/01/07 07:31:32;;;;;;;2.70;2.70;;;;;;;;;;6246846;23;20425;-69
2024/01/07 07:33:58;;;;;;;4.37;4.17;;;;;;;;;;6246549;23;20835;-70
2024/01/07 07:36:24;;;;;;;3.63;3.43;;;;;;;;;;6246631;23;20810;-69
2024/01/07 07:38:50;;;;;;;3.50;3.40;;;;;;;;;;6246308;23;20800;-69
2024/01/07 07:41:17;;;;;;;4.83;4.43;;;;;;;;;;6246286;23;20517;-71
2024/01/07 07:43:43;;;;;;;4.10;3.80;;;;;;;;;;6219497;23;20453;-70
2024/01/07 07:46:09;;;;;;;3.67;3.37;;;;;;;;;;6247411;23;20842;-70
2024/01/07 07:48:35;;;;;;;3.70;3.60;;;;;;;;;;6246583;23;20844;-69
2024/01/07 07:51:01;;;;;;;3.80;3.70;;;;;;;;;;6246209;23;20694;-70
2024/01/07 07:53:27;;;;;;;3.20;3.10;;;;;;;;;;6246508;23;20378;-70
2024/01/07 07:55:53;;;;;;;3.70;3.50;;;;;;;;;;6246178;23;20375;-70
2024/01/07 07:58:19;;;;;;;2.53;2.50;;;;;;;;;;6246001;23;20428;-70
2024/01/07 08:00:45;;;;;;;2.50;2.50;;;;;;;;;;6246298;23;20931;-70
2024/01/07 08:03:11;;;;;;;3.13;3.03;;;;;;;;;;6246601;23;20746;-70
2024/01/07 08:05:38;;;;;;;3.43;3.20;;;;;;;;;;6246112;23;20409;-70
2024/01/07 08:08:04;;;;;;;2.50;2.50;;;;;;;;;;6246417;23;20378;-70
2024/01/07 08:13:41;;;;;;;2.30;2.30;;;;;;;;;;6246230;23;20361;-71
2024/01/07 08:16:08;;;;;;;2.30;2.20;;;;;;;;;;6246485;23;20382;-70
2024/01/07 08:18:34;;;;;;;2.37;2.37;;;;;;;;;;6246000;23;20375;-71
2024/01/07 08:21:00;;;;;;;5.83;2.90;;;;;;;;;;6245552;23;20377;-70
2024/01/07 08:23:26;;;;;;;3.70;3.50;;;;;;;;;;6219152;23;20449;-70
2024/01/07 08:25:52;;;;;;;5.10;4.70;;;;;;;;;;6245940;23;20863;-70
2024/01/07 08:28:18;;;;;;;4.67;4.43;;;;;;;;;;6246288;23;20417;-70
2024/01/07 08:30:45;;;;;;;3.70;3.50;;;;;;;;;;6246316;23;20453;-70
2024/01/07 08:33:11;;;;;;;3.57;3.47;;;;;;;;;;6246343;23;20429;-71
2024/01/07 08:35:37;;;;;;;4.50;4.20;;;;;;;;;;6218963;23;20448;-71
2024/01/07 08:38:03;;;;;;;4.50;4.20;;;;;;;;;;6246076;23;20441;-71
2024/01/07 08:40:29;;;;;;;4.63;4.33;;;;;;;;;;6245859;23;20454;-70
2024/01/07 08:42:55;;;;;;;4.87;4.17;;;;;;;;;;6246191;23;20432;-71
2024/01/07 08:45:22;;;;;;;5.63;4.20;;;;;;;;;;6245893;23;20671;-70
2024/01/07 08:47:48;;;;;;;5.90;5.40;;;;;;;;;;6220354;23;20452;-70
2024/01/07 08:50:14;;;;;;;5.90;5.50;;;;;;;;;;6246107;23;20370;-69
2024/01/07 08:52:40;;;;;;;5.50;5.00;;;;;;;;;;6245770;23;20741;-70
2024/01/07 08:55:09;;;;;;;5.90;5.40;;;;;;;;;;6245604;23;20374;-70
2024/01/07 08:57:35;;;;;;;6.03;5.73;;;;;;;;;;6221239;23;20374;-70
2024/01/07 09:00:02;;;;;;;6.97;6.27;;;;;;;;;;6246454;23;20691;-70
2024/01/07 09:02:28;;;;;;;6.40;5.80;;;;;;;;;;6246383;23;20406;-70
2024/01/07 09:04:54;;;;;;;7.10;6.50;;;;;;;;;;6245565;23;20479;-71
2024/01/07 09:07:20;;;;;;;5.83;5.40;;;;;;;;;;6246109;23;20378;-70
2024/01/07 09:09:46;;;;;;;7.60;6.93;;;;;;;;;;6246017;23;20387;-71
2024/01/07 09:12:12;;;;;;;6.70;6.03;;;;;;;;;;6245909;23;20436;-71
2024/01/07 09:14:38;;;;;;;5.40;5.00;;;;;;;;;;6245898;23;20695;-69
2024/01/07 09:17:04;;;;;;;5.40;5.00;;;;;;;;;;6245676;23;20373;-70
2024/01/07 09:19:30;;;;;;;6.47;5.97;;;;;;;;;;6245573;23;20386;-70
2024/01/07 09:21:56;;;;;;;4.77;4.37;;;;;;;;;;6245881;23;20374;-70
2024/01/07 09:24:22;;;;;;;5.80;5.37;;;;;;;;;;6246747;23;20430;-70
2024/01/07 09:26:48;;;;;;;5.40;5.10;;;;;;;;;;6245593;23;20385;-70
2024/01/07 09:29:14;;;;;;;4.83;4.53;;;;;;;;;;6245619;23;20393;-70
2024/01/07 09:31:41;;;;;;;5.33;4.93;;;;;;;;;;6245942;23;20378;-70
2024/01/07 09:34:07;;;;;;;6.00;5.00;;;;;;;;;;6248002;23;20712;-70
2024/01/07 09:36:35;;;;;;;6.57;5.97;;;;;;;;;;6248590;23;20911;-70
2024/01/07 09:39:01;;;;;;;5.33;4.90;;;;;;;;;;6247563;23;20487;-70
2024/01/07 09:41:27;;;;;;;6.00;5.40;;;;;;;;;;6247780;23;20453;-70
2024/01/07 09:43:53;;;;;;;6.23;5.73;;;;;;;;;;6247332;23;20472;-70
2024/01/07 09:46:20;;;;;;;6.90;6.50;;;;;;;;;;6246864;23;20378;-70
2024/01/07 09:48:46;;;;;;;6.77;6.27;;;;;;;;;;6248112;23;20689;-70
2024/01/07 09:51:12;;;;;;;6.30;5.90;;;;;;;;;;6247398;23;20855;-70
2024/01/07 09:53:42;;;;;;;5.73;5.47;;;;;;;;;;6247795;23;20700;-70
2024/01/07 09:56:22;;;;;;;5.90;5.53;;;;;;;;;;6247575;23;20477;-70
2024/01/07 09:58:49;;;;;;;4.77;4.47;;;;;;;;;;6247462;23;21005;-69
2024/01/07 10:01:17;;;;;;;5.00;4.80;;;;;;;;;;6247698;23;20382;-70
2024/01/07 10:03:43;;;;;;;6.07;5.67;;;;;;;;;;6247681;23;20418;-70
2024/01/07 10:06:09;;;;;;;6.43;5.77;;;;;;;;;;6220566;23;20448;-72
2024/01/07 10:08:35;;;;;;;5.67;5.37;;;;;;;;;;6247214;23;20840;-70
2024/01/07 10:11:02;;;;;;;5.40;5.10;;;;;;;;;;6247307;23;20378;-70
2024/01/07 10:13:28;;;;;;;5.83;5.53;;;;;;;;;;6247260;23;20935;-70
2024/01/07 10:15:54;;;;;;;6.27;5.87;;;;;;;;;;6247377;23;20374;-69
2024/01/07 10:18:20;;;;;;;3.87;3.60;;;;;;;;;;6247500;23;20405;-69
2024/01/07 10:20:46;;;;;;;5.47;5.17;;;;;;;;;;6247200;23;20397;-69
2024/01/07 10:23:13;;;;;;;4.37;4.13;;;;;;;;;;6246850;23;20390;-70
2024/01/07 10:25:40;;;;;;;4.80;4.50;;;;;;;;;;6247502;23;20386;-71
2024/01/07 10:28:06;;;;;;;4.20;4.03;;;;;;;;;;6247574;23;20370;-70
2024/01/07 10:30:32;;;;;;;4.53;4.30;;;;;;;;;;6247432;23;20465;-71
2024/01/07 10:32:58;;;;;;;3.80;3.60;;;;;;;;;;6247278;23;20377;-69
2024/01/07 10:35:29;;;;;;;4.20;3.97;;;;;;;;;;6247457;23;20389;-70
2024/01/07 10:37:55;;;;;;;3.60;3.50;;;;;;;;;;6246886;23;20425;-69
2024/01/07 10:40:21;;;;;;;4.30;4.00;;;;;;;;;;6247347;23;20516;-70
2024/01/07 10:42:49;;;;;;;3.50;3.40;;;;;;;;;;6247326;23;20402;-70
2024/01/07 10:45:18;;;;;;;4.13;3.93;;;;;;;;;;6246650;23;20600;-69
2024/01/07 10:47:46;;;;;;;4.73;4.33;;;;;;;;;;6247294;23;20461;-71
2024/01/07 10:50:13;;;;;;;3.87;3.67;;;;;;;;;;6246950;23;20413;-70
2024/01/07 10:52:40;;;;;;;3.77;3.63;;;;;;;;;;6220509;23;20397;-69
2024/01/07 10:55:11;;;;;;;4.40;4.10;;;;;;;;;;6247320;23;20382;-70
2024/01/07 10:57:40;;;;;;;3.43;3.33;;;;;;;;;;6247251;23;20383;-69
2024/01/07 11:03:28;;;;;;;3.63;3.53;;;;;;;;;;6247156;23;20358;-70
2024/01/07 11:06:00;;;;;;;4.83;4.60;;;;;;;;;;6247139;23;20875;-70
2024/01/07 11:08:29;;;;;;;5.33;5.03;;;;;;;;;;6246686;23;20747;-70
2024/01/07 11:11:03;;;;;;;5.70;5.50;;;;;;;;;;6246762;23;20378;-70
2024/01/07 11:13:37;;;;;;;4.20;4.00;;;;;;;;;;6247560;23;20358;-70
2024/01/07 11:16:04;;;;;;;5.60;5.00;;;;;;;;;;6247158;23;20435;-70
2024/01/07 11:18:33;;;;;;;4.40;4.10;;;;;;;;;;6246988;23;20379;-69
2024/01/07 11:21:02;;;;;;;4.00;3.90;;;;;;;;;;6246902;23;20386;-70
2024/01/07 11:23:39;;;;;;;5.80;5.30;;;;;;;;;;6247506;23;20425;-70
2024/01/07 11:26:05;;;;;;;5.23;4.33;;;;;;;;;;6246585;23;20382;-71
2024/01/07 11:28:50;;;;;;;8.00;4.63;;;;;;;;;;6246534;23;20370;-70
2024/01/07 11:31:17;;;;;;;4.27;3.97;;;;;;;;;;6246439;23;20840;-70
2024/01/07 11:33:44;;;;;;;3.97;3.67;;;;;;;;;;6246743;23;20406;-70
2024/01/07 11:36:11;;;;;;;4.97;4.57;;;;;;;;;;6246735;23;20386;-71
2024/01/07 11:38:39;;;;;;;4.87;4.57;;;;;;;;;;6219480;23;20434;-70
2024/01/07 11:41:06;;;;;;;4.83;4.43;;;;;;;;;;6246405;23;20937;-70
2024/01/07 11:43:34;;;;;;;4.27;4.07;;;;;;;;;;6246441;23;20761;-70
2024/01/07 11:46:00;;;;;;;4.50;3.90;;;;;;;;;;6246759;23;20392;-69
2024/01/07 11:48:26;;;;;;;4.00;3.90;;;;;;;;;;6246735;23;20401;-69
2024/01/07 11:50:52;;;;;;;4.50;4.30;;;;;;;;;;6246504;23;20429;-69
2024/01/07 11:53:18;;;;;;;4.10;3.90;;;;;;;;;;6246607;23;20868;-69
2024/01/07 11:55:45;;;;;;;4.30;4.13;;;;;;;;;;6246551;23;20742;-69
2024/01/07 11:58:12;;;;;;;4.10;3.90;;;;;;;;;;6246425;23;20717;-70
2024/01/07 12:00:38;;;;;;;5.37;5.10;;;;;;;;;;6246226;23;20707;-70
2024/01/07 12:03:04;;;;;;;4.50;4.27;;;;;;;;;;6220225;23;20871;-70
2024/01/07 12:05:30;;;;;;;4.83;4.53;;;;;;;;;;6245566;23;20471;-68
2024/01/07 12:07:57;;;;;;;4.20;4.00;;;;;;;;;;6246114;23;20366;-70
2024/01/07 12:10:26;;;;;;;3.40;3.30;;;;;;;;;;6246059;23;20428;-69
2024/01/07 12:12:53;;;;;;;5.17;3.90;;;;;;;;;;6246439;23;20431;-68
2024/01/07 12:15:19;;;;;;;4.30;4.10;;;;;;;;;;6246225;23;20374;-69
2024/01/07 12:17:56;;;;;;;3.73;3.63;;;;;;;;;;6246492;23;20370;-69
2024/01/07 12:20:22;;;;;;;4.37;4.17;;;;;;;;;;6245901;23;20906;-69
2024/01/07 12:22:48;;;;;;;4.13;3.97;;;;;;;;;;6246328;23;20379;-70
2024/01/07 12:25:14;;;;;;;3.50;3.40;;;;;;;;;;6246285;23;20448;-70
2024/01/07 12:27:41;;;;;;;3.80;3.60;;;;;;;;;;6246088;23;20400;-71
2024/01/07 12:30:08;;;;;;;3.90;3.60;;;;;;;;;;6245889;23;20531;-70
2024/01/07 12:32:33;;;;;;;3.90;3.60;;;;;;;;;;6245990;23;20374;-69
2024/01/07 12:35:01;;;;;;;5.03;4.73;;;;;;;;;;6245914;23;20381;-69
2024/01/07 12:37:28;;;;;;;3.97;3.77;;;;;;;;;;6245819;23;20401;-69
2024/01/07 12:39:54;;;;;;;6.70;4.80;;;;;;;;;;6246434;23;20851;-69
2024/01/07 12:42:21;;;;;;;5.03;4.70;;;;;;;;;;6246800;23;20377;-69
2024/01/07 12:44:51;;;;;;;5.70;5.30;;;;;;;;;;6246585;23;20575;-69
2024/01/07 12:47:17;;;;;;;4.80;4.60;;;;;;;;;;6245692;23;20474;-69
2024/01/07 12:49:46;;;;;;;4.63;4.47;;;;;;;;;;6246275;23;20382;-68
2024/01/07 12:52:12;;;;;;;4.77;4.37;;;;;;;;;;6245730;23;20382;-69
2024/01/07 12:54:39;;;;;;;5.23;4.70;;;;;;;;;;6218953;23;20387;-69
2024/01/07 12:57:05;;;;;;;4.10;3.97;;;;;;;;;;6245598;23;20386;-69
2024/01/07 12:59:31;;;;;;;4.87;4.47;;;;;;;;;;6246146;23;20902;-69
2024/01/07 13:01:57;;;;;;;5.13;4.80;;;;;;;;;;6245447;23;20378;-69
2024/01/07 13:04:23;;;;;;;4.57;4.37;;;;;;;;;;6245662;23;20433;-70
2024/01/07 13:06:49;;;;;;;5.40;4.90;;;;;;;;;;6245412;23;20433;-70
2024/01/07 13:09:15;;;;;;;4.70;4.30;;;;;;;;;;6245982;23;20914;-70
2024/01/07 13:11:41;;;;;;;5.60;5.20;;;;;;;;;;6245891;23;20375;-69
2024/01/07 13:14:07;;;;;;;4.80;4.40;;;;;;;;;;6245655;23;20386;-70
2024/01/07 13:16:34;;;;;;;5.43;5.03;;;;;;;;;;6245639;23;20371;-69
2024/01/07 13:19:00;;;;;;;5.63;5.27;;;;;;;;;;6245817;23;20382;-70
2024/01/07 13:21:26;;;;;;;5.27;4.83;;;;;;;;;;6245759;23;20416;-70
2024/01/07 13:23:52;;;;;;;5.47;5.17;;;;;;;;;;6245606;23;20441;-70
2024/01/07 13:26:20;;;;;;;5.43;5.03;;;;;;;;;;6246100;23;20436;-70
2024/01/07 13:28:46;;;;;;;5.23;4.93;;;;;;;;;;6245971;23;20394;-69
2024/01/07 13:31:13;;;;;;;4.50;4.27;;;;;;;;;;6245596;23;20876;-70
2024/01/07 13:33:39;;;;;;;6.63;6.03;;;;;;;;;;6245630;23;20893;-70
2024/01/07 13:36:09;;;;;;;4.73;4.50;;;;;;;;;;6245866;23;20457;-69
2024/01/07 13:38:35;;;;;;;5.73;5.23;;;;;;;;;;6246123;23;20444;-69
2024/01/07 13:41:01;;;;;;;4.80;4.50;;;;;;;;;;6245679;23;20381;-70
2024/01/07 13:43:29;;;;;;;4.23;3.70;;;;;;;;;;6245505;23;20930;-69
2024/01/07 13:45:55;;;;;;;4.57;4.27;;;;;;;;;;6218796;23;20401;-70
2024/01/07 13:48:21;;;;;;;3.93;3.73;;;;;;;;;;6246360;23;20359;-70
2024/01/07 13:50:49;;;;;;;5.30;4.80;;;;;;;;;;6245821;23;20548;-69
2024/01/07 13:53:15;;;;;;;4.97;4.67;;;;;;;;;;6245715;23;20370;-70
2024/01/07 13:55:41;;;;;;;5.93;5.43;;;;;;;;;;6246289;23;20383;-70
2024/01/07 13:58:07;;;;;;;4.43;4.23;;;;;;;;;;6245534;23;20701;-70
2024/01/07 14:00:33;;;;;;;5.33;4.83;;;;;;;;;;6245457;23;20370;-70
2024/01/07 14:02:59;;;;;;;3.67;3.57;;;;;;;;;;6245882;23;20362;-70
2024/01/07 14:05:25;;;;;;;4.80;4.60;;;;;;;;;;6245749;23;20524;-70
2024/01/07 14:07:51;;;;;;;4.50;4.30;;;;;;;;;;6246602;23;20375;-69
2024/01/07 14:10:19;;;;;;;4.47;4.17;;;;;;;;;;6246139;23;20377;-70
2024/01/07 14:12:45;;;;;;;3.57;3.47;;;;;;;;;;6245372;23;20393;-69
2024/01/07 14:15:11;;;;;;;4.20;4.00;;;;;;;;;;6245381;23;20457;-69
2024/01/07 14:17:37;;;;;;;5.40;5.20;;;;;;;;;;6245806;23;20408;-69
2024/01/07 14:20:03;;;;;;;4.17;3.97;;;;;;;;;;6246900;23;20760;-70
2024/01/07 14:22:29;;;;;;;5.40;3.77;;;;;;;;;;6247495;23;20840;-70
2024/01/07 14:24:55;;;;;;;5.23;4.83;;;;;;;;;;6247173;23;20433;-70
2024/01/07 14:27:21;;;;;;;4.13;3.93;;;;;;;;;;6247075;23;20366;-69
2024/01/07 14:29:47;;;;;;;3.47;3.37;;;;;;;;;;6248099;23;20389;-69
2024/01/07 14:32:14;;;;;;;3.83;3.63;;;;;;;;;;6247360;23;20398;-69
2024/01/07 14:34:44;;;;;;;3.07;2.87;;;;;;;;;;6220325;23;20535;-69
2024/01/07 14:37:10;;;;;;;3.70;3.50;;;;;;;;;;6221714;23;20473;-69
2024/01/07 14:39:36;;;;;;;1.83;1.73;;;;;;;;;;6247241;23;20445;-70
2024/01/07 14:42:02;;;;;;;3.00;2.90;;;;;;;;;;6247422;23;20375;-70
2024/01/07 14:44:28;;;;;;;2.57;2.47;;;;;;;;;;6247264;23;20430;-70